aviador You're here:

ZSHC Decoded Metar

HANGZHOU in CHINA
Report Time2017-09-26 12:00:00
UTC Time2017-09-26 12:40:33
Flight Rules vfr VFR
Wind280° at 4 kt
W.Decomp.*RWY 25: 3.3 kt HW 2.2 kt RCW
W.Rank280° ranks 30
Current wind is below 280° avg. (5.4)
Visibility9999 m
Phenomena:N/A
Clouds:Few 023 Hf
Expected CloudBase > 400 ft AGL from Temp-Dew spread
CeilingNone
Temp27°C (ISA +12)
Dew Point26°C (94% RH)
Heat Index31.2°C
QNH1008 hPa
Density Alt2,165 ft
Elevation141 ft
Report Wrong Elevation
Raw Report
METAR ZSHC 261200Z 28002MPS 240V320 9999 FEW023 27/26 Q1008 NOSIG=

Extra information for ZSHC:More info

Metar Taf Metar & Taf Last 4 Metars F.Rules Stats Wind Profile Meteogram Temp Stats Airport Information Weather charts Add Link Nearby VenuesMetar ALERT Operation Metar Decoded Social comments